createdAt,value
2017-07-23T00:04:26.340Z,38.03
2017-07-23T00:06:53.104Z,42.90
2017-07-23T00:09:19.134Z,38.30
2017-07-23T00:11:45.196Z,41.10
2017-07-23T00:14:11.961Z,41.60
2017-07-23T00:16:38.004Z,64.43
2017-07-23T00:19:04.030Z,38.60
2017-07-23T00:21:30.041Z,36.73
2017-07-23T00:23:56.828Z,44.93
2017-07-23T00:26:22.840Z,41.00
2017-07-23T00:28:48.860Z,43.20
2017-07-23T00:31:14.889Z,51.33
2017-07-23T00:33:40.936Z,53.90
2017-07-23T00:36:06.967Z,41.30
2017-07-23T00:38:33.035Z,42.00
2017-07-23T00:40:59.781Z,41.17
2017-07-23T00:43:25.796Z,46.60
2017-07-23T00:45:51.822Z,42.40
2017-07-23T00:48:17.872Z,43.70
2017-07-23T00:50:43.893Z,47.30
2017-07-23T00:53:10.658Z,53.63
2017-07-23T00:55:36.694Z,52.10
2017-07-23T00:58:02.713Z,41.53
2017-07-23T01:00:28.742Z,52.97
2017-07-23T01:02:54.774Z,46.97
2017-07-23T01:05:20.793Z,42.80
2017-07-23T01:07:46.824Z,41.87
2017-07-23T01:10:12.857Z,47.93
2017-07-23T01:12:38.895Z,44.80
2017-07-23T01:15:04.913Z,44.07
2017-07-23T01:17:30.938Z,50.30
2017-07-23T01:19:56.971Z,48.93
2017-07-23T01:22:23.005Z,47.90
2017-07-23T01:24:49.760Z,49.20
2017-07-23T01:27:15.778Z,48.70
2017-07-23T01:29:41.802Z,48.53
2017-07-23T01:32:07.828Z,51.77
2017-07-23T01:34:33.854Z,45.97
2017-07-23T01:36:59.888Z,41.53
2017-07-23T01:39:25.932Z,44.13
2017-07-23T01:41:51.969Z,47.73
2017-07-23T01:44:17.993Z,54.07
2017-07-23T01:46:44.012Z,42.83
2017-07-23T01:49:10.776Z,54.90
2017-07-23T01:51:36.789Z,49.27
2017-07-23T01:54:02.843Z,50.47
2017-07-23T01:56:29.605Z,52.60
2017-07-23T01:58:55.660Z,45.73
2017-07-23T02:01:21.700Z,52.63
2017-07-23T02:03:48.472Z,57.97
2017-07-23T02:06:14.503Z,48.73
2017-07-23T02:08:40.545Z,53.60
2017-07-23T02:11:07.305Z,55.70
2017-07-23T02:13:33.356Z,51.20
2017-07-23T02:15:59.372Z,51.30
2017-07-23T02:18:25.397Z,60.53
2017-07-23T02:20:52.159Z,43.37
2017-07-23T02:23:18.172Z,50.13
2017-07-23T02:25:44.189Z,45.50
2017-07-23T02:28:10.212Z,47.57
2017-07-23T02:30:36.236Z,45.10
2017-07-23T02:33:02.274Z,54.60
2017-07-23T02:35:28.316Z,47.53
2017-07-23T02:37:54.338Z,68.80
2017-07-23T02:40:20.349Z,47.00
2017-07-23T02:42:46.378Z,49.57
2017-07-23T02:45:12.388Z,45.43
2017-07-23T02:47:38.437Z,47.83
2017-07-23T02:50:04.448Z,62.87
2017-07-23T02:52:30.465Z,58.47
2017-07-23T02:54:56.480Z,53.60
2017-07-23T02:57:22.531Z,50.83
2017-07-23T02:59:48.560Z,61.03
2017-07-23T03:02:15.330Z,52.03
2017-07-23T03:04:41.354Z,56.97
2017-07-23T03:07:07.404Z,62.10
2017-07-23T03:09:33.417Z,63.13
2017-07-23T03:12:00.364Z,54.63
2017-07-23T03:14:26.377Z,56.90
2017-07-23T03:16:52.397Z,62.80
2017-07-23T03:19:18.456Z,56.57
2017-07-23T03:21:44.490Z,55.70
2017-07-23T03:24:10.524Z,67.97
2017-07-23T03:26:36.568Z,59.87
2017-07-23T03:29:02.620Z,61.27
2017-07-23T03:31:28.644Z,54.03
2017-07-23T03:33:54.677Z,58.50
2017-07-23T03:36:27.789Z,58.50
2017-07-23T03:38:53.840Z,62.43
2017-07-23T03:41:19.863Z,61.90
2017-07-23T03:43:45.877Z,71.13
2017-07-23T03:46:11.906Z,55.33
2017-07-23T03:48:38.001Z,55.50
2017-07-23T03:51:04.036Z,57.50
2017-07-23T03:53:30.812Z,57.20
2017-07-23T03:55:56.837Z,53.27
2017-07-23T03:58:22.850Z,61.03
2017-07-23T04:00:48.932Z,65.83
2017-07-23T04:03:14.969Z,56.37
2017-07-23T04:05:41.030Z,59.27
2017-07-23T04:08:07.053Z,62.77
2017-07-23T04:10:33.078Z,62.67
2017-07-23T04:12:59.130Z,56.53
2017-07-23T04:15:25.900Z,55.97
2017-07-23T04:17:51.932Z,55.43
2017-07-23T04:20:17.939Z,50.00
2017-07-23T04:22:43.969Z,49.33
2017-07-23T04:25:10.016Z,49.10
2017-07-23T04:27:36.071Z,48.70
2017-07-23T04:30:02.094Z,47.70
2017-07-23T04:32:28.109Z,46.97
2017-07-23T04:34:54.137Z,52.07
2017-07-23T04:37:20.920Z,51.47
2017-07-23T04:39:46.957Z,53.63
2017-07-23T04:42:12.973Z,51.23
2017-07-23T04:44:39.748Z,53.90
2017-07-23T04:47:05.800Z,55.47
2017-07-23T04:49:31.832Z,56.43
2017-07-23T04:51:57.867Z,58.47
2017-07-23T04:54:23.896Z,52.73
2017-07-23T04:56:49.937Z,54.33
2017-07-23T04:59:16.718Z,48.40
2017-07-23T05:01:42.780Z,49.43
2017-07-23T05:04:08.794Z,46.50
2017-07-23T05:06:35.552Z,47.20
2017-07-23T05:09:01.579Z,45.77
2017-07-23T05:11:27.642Z,43.57
2017-07-23T05:13:53.675Z,37.30
2017-07-23T05:16:19.692Z,35.33
2017-07-23T05:18:45.708Z,38.57
2017-07-23T05:21:11.741Z,39.30
2017-07-23T05:23:37.773Z,32.13
2017-07-23T05:26:04.526Z,33.17
2017-07-23T05:28:37.573Z,28.17
2017-07-23T05:31:04.320Z,30.13
2017-07-23T05:33:30.349Z,28.53
2017-07-23T05:35:56.349Z,24.47
2017-07-23T05:38:22.404Z,28.23
2017-07-23T05:40:48.434Z,22.97
2017-07-23T05:43:14.486Z,17.90
2017-07-23T05:45:40.513Z,19.07
2017-07-23T05:48:06.553Z,27.90
2017-07-23T05:50:32.577Z,19.87
2017-07-23T05:52:58.629Z,21.80
2017-07-23T05:55:24.657Z,21.93
2017-07-23T05:57:50.688Z,30.27
2017-07-23T06:00:17.460Z,26.77
2017-07-23T06:02:43.495Z,28.23
2017-07-23T06:05:09.533Z,25.50
2017-07-23T06:07:36.290Z,37.03
2017-07-23T06:10:02.327Z,31.53
2017-07-23T06:12:28.350Z,29.87
2017-07-23T06:14:54.377Z,37.27
2017-07-23T06:17:21.168Z,42.00
2017-07-23T06:19:47.201Z,36.70
2017-07-23T06:22:13.248Z,42.23
2017-07-23T06:24:39.274Z,39.67
2017-07-23T06:27:05.311Z,46.27
2017-07-23T06:29:31.340Z,34.73
2017-07-23T06:31:57.360Z,41.07
2017-07-23T06:34:24.108Z,44.07
2017-07-23T06:36:50.157Z,36.20
2017-07-23T06:39:16.192Z,36.00
2017-07-23T06:41:42.209Z,36.40
2017-07-23T06:44:08.239Z,32.33
2017-07-23T06:46:34.272Z,32.20
2017-07-23T06:49:00.284Z,33.10
2017-07-23T06:51:26.310Z,32.37
2017-07-23T06:53:52.361Z,35.57
2017-07-23T06:56:19.116Z,34.90
2017-07-23T06:58:45.137Z,31.03
2017-07-23T07:01:11.169Z,27.57
2017-07-23T07:03:37.215Z,29.83
2017-07-23T07:06:03.974Z,31.63
2017-07-23T07:08:29.997Z,30.73
2017-07-23T07:10:56.019Z,23.87
2017-07-23T07:13:22.037Z,28.57
2017-07-23T07:15:48.068Z,23.87
2017-07-23T07:18:14.108Z,24.27
2017-07-23T07:20:40.130Z,23.07
2017-07-23T07:23:06.168Z,24.57
2017-07-23T07:25:32.189Z,21.77
2017-07-23T07:27:58.193Z,21.73
2017-07-23T07:30:24.222Z,24.80
2017-07-23T07:32:50.978Z,21.93
2017-07-23T07:35:17.061Z,21.37
2017-07-23T07:37:43.086Z,20.60
2017-07-23T07:40:09.097Z,15.97
2017-07-23T07:42:35.140Z,16.37
2017-07-23T07:45:01.181Z,16.47
2017-07-23T07:47:27.940Z,15.27
2017-07-23T07:49:53.976Z,12.60
2017-07-23T07:52:19.998Z,12.47
2017-07-23T07:54:46.044Z,13.53
2017-07-23T07:57:12.817Z,12.50
2017-07-23T07:59:38.864Z,14.27
2017-07-23T08:02:05.680Z,17.30
2017-07-23T08:04:31.726Z,13.37
2017-07-23T08:06:57.764Z,13.10
2017-07-23T08:09:23.785Z,13.87
2017-07-23T08:11:49.810Z,14.13
2017-07-23T08:14:15.860Z,13.70
2017-07-23T08:16:41.897Z,9.80
2017-07-23T08:19:07.943Z,9.97
2017-07-23T08:21:33.956Z,10.83
2017-07-23T08:23:59.989Z,7.57
2017-07-23T08:26:26.040Z,7.13
2017-07-23T08:28:52.133Z,5.80
2017-07-23T08:31:18.170Z,7.53
2017-07-23T08:33:44.201Z,7.83
2017-07-23T08:36:10.230Z,8.00
2017-07-23T08:38:36.286Z,9.20
2017-07-23T08:41:02.326Z,8.00
2017-07-23T08:43:28.355Z,5.30
2017-07-23T08:45:55.129Z,4.60
2017-07-23T08:48:21.183Z,4.17
2017-07-23T08:50:47.193Z,4.10
2017-07-23T08:53:13.976Z,4.40
2017-07-23T08:55:39.997Z,3.83
2017-07-23T08:58:06.017Z,4.20
2017-07-23T09:00:32.027Z,5.63
2017-07-23T09:02:58.801Z,8.10
2017-07-23T09:05:24.817Z,7.97
2017-07-23T09:07:50.837Z,7.80
2017-07-23T09:10:16.847Z,10.10
2017-07-23T09:12:42.884Z,7.97
2017-07-23T09:15:08.911Z,16.50
2017-07-23T09:17:35.681Z,7.90
2017-07-23T09:20:01.705Z,11.97
2017-07-23T09:22:27.721Z,9.80
2017-07-23T09:24:53.753Z,11.13
2017-07-23T09:27:20.504Z,11.90
2017-07-23T09:29:46.576Z,10.83
2017-07-23T09:32:12.593Z,9.93
2017-07-23T09:34:38.600Z,9.70
2017-07-23T09:37:04.623Z,10.87
2017-07-23T09:39:30.657Z,8.60
2017-07-23T09:41:56.708Z,8.03
2017-07-23T09:44:22.729Z,9.50
2017-07-23T09:46:48.752Z,7.00
2017-07-23T09:49:14.894Z,8.13
2017-07-23T09:51:41.001Z,7.40
2017-07-23T09:54:07.021Z,6.53
2017-07-23T09:56:33.126Z,6.33
2017-07-23T09:58:59.168Z,5.40
2017-07-23T10:01:25.198Z,7.20
2017-07-23T10:03:51.213Z,7.70
2017-07-23T10:06:17.987Z,10.57
2017-07-23T10:08:44.025Z,10.13
2017-07-23T10:11:10.133Z,9.67
2017-07-23T10:13:36.180Z,9.80
2017-07-23T10:16:09.866Z,10.57
2017-07-23T10:18:36.658Z,10.43
2017-07-23T10:21:02.681Z,9.60
2017-07-23T10:23:28.710Z,12.20
2017-07-23T10:25:55.569Z,10.83
2017-07-23T10:28:21.753Z,10.60
2017-07-23T10:30:47.844Z,9.07
2017-07-23T10:33:14.661Z,9.63
2017-07-23T10:35:40.766Z,9.57
2017-07-23T10:38:06.773Z,10.40
2017-07-23T10:40:32.812Z,10.50
2017-07-23T10:42:59.602Z,9.83
2017-07-23T10:45:25.668Z,11.97
2017-07-23T10:47:51.740Z,12.70
2017-07-23T10:50:17.781Z,11.20
2017-07-23T10:52:43.842Z,10.60
2017-07-23T10:55:09.893Z,11.87
2017-07-23T10:57:35.913Z,12.73
2017-07-23T11:00:01.917Z,12.10
2017-07-23T11:02:27.944Z,12.00
2017-07-23T11:04:53.962Z,10.77
2017-07-23T11:07:20.005Z,11.30
2017-07-23T11:09:46.040Z,12.40
2017-07-23T11:12:12.818Z,15.33
2017-07-23T11:14:38.837Z,12.83
2017-07-23T11:17:04.860Z,12.33
2017-07-23T11:19:30.964Z,13.03
2017-07-23T11:21:56.985Z,14.67
2017-07-23T11:24:23.026Z,14.70
2017-07-23T11:26:49.059Z,12.40
2017-07-23T11:29:15.958Z,17.17
2017-07-23T11:31:41.980Z,12.90
2017-07-23T11:34:08.024Z,16.20
2017-07-23T11:36:34.056Z,15.07
2017-07-23T11:39:00.820Z,16.00
2017-07-23T11:41:26.856Z,17.70
2017-07-23T11:43:52.880Z,14.63
2017-07-23T11:46:18.984Z,14.67
2017-07-23T11:48:45.370Z,13.73
2017-07-23T11:51:11.490Z,17.13
2017-07-23T11:53:37.518Z,14.57
2017-07-23T11:56:03.563Z,13.53
2017-07-23T11:58:30.353Z,25.13
2017-07-23T12:00:56.430Z,15.53
2017-07-23T12:03:22.779Z,15.23
2017-07-23T12:05:49.056Z,14.00
2017-07-23T12:08:15.766Z,15.80
2017-07-23T12:10:41.817Z,14.20
2017-07-23T12:13:07.840Z,15.40
2017-07-23T12:15:33.869Z,17.83
2017-07-23T12:18:00.631Z,18.10
2017-07-23T12:20:26.649Z,16.80
2017-07-23T12:22:52.685Z,14.20
2017-07-23T12:25:18.694Z,12.70
2017-07-23T12:27:44.717Z,10.37
2017-07-23T12:30:10.725Z,11.27
2017-07-23T12:32:36.741Z,10.43
2017-07-23T12:35:02.745Z,9.53
2017-07-23T12:37:28.765Z,7.47
2017-07-23T12:39:54.773Z,12.00
2017-07-23T12:42:21.532Z,7.43
2017-07-23T12:44:47.564Z,7.80
2017-07-23T12:47:13.582Z,8.53
2017-07-23T12:49:39.601Z,11.13
2017-07-23T12:52:06.382Z,5.70
2017-07-23T12:54:32.421Z,7.03
2017-07-23T12:56:58.457Z,5.77
2017-07-23T12:59:24.488Z,8.00
2017-07-23T13:01:50.507Z,10.73
2017-07-23T13:04:16.538Z,7.90
2017-07-23T13:06:42.562Z,7.40
2017-07-23T13:09:08.600Z,6.00
2017-07-23T13:11:34.726Z,6.70
2017-07-23T13:14:00.797Z,6.17
2017-07-23T13:16:26.816Z,7.30
2017-07-23T13:18:52.859Z,10.47
2017-07-23T13:21:19.082Z,9.80
2017-07-23T13:23:45.118Z,6.23
2017-07-23T13:26:11.141Z,5.10
2017-07-23T13:28:37.176Z,6.40
2017-07-23T13:31:03.205Z,4.90
2017-07-23T13:33:29.956Z,5.03
2017-07-23T13:35:55.968Z,3.03
2017-07-23T13:38:21.990Z,4.17
2017-07-23T13:40:48.052Z,8.37
2017-07-23T13:43:14.900Z,5.53
2017-07-23T13:45:40.921Z,6.27
2017-07-23T13:48:06.955Z,3.93
2017-07-23T13:50:32.977Z,6.83
2017-07-23T13:52:58.993Z,9.07
2017-07-23T13:55:25.012Z,4.83
2017-07-23T13:57:51.781Z,6.53
2017-07-23T14:00:17.830Z,6.13
2017-07-23T14:02:43.865Z,9.60
2017-07-23T14:05:10.644Z,6.10
2017-07-23T14:07:36.689Z,13.63
2017-07-23T14:10:02.709Z,3.63
2017-07-23T14:12:28.740Z,8.83
2017-07-23T14:14:54.764Z,3.63
2017-07-23T14:17:20.792Z,6.17
2017-07-23T14:19:46.844Z,2.90
2017-07-23T14:22:19.887Z,7.60
2017-07-23T14:24:45.910Z,6.10
2017-07-23T14:27:11.937Z,5.53
2017-07-23T14:29:38.727Z,4.43
2017-07-23T14:32:04.792Z,3.73
2017-07-23T14:34:30.822Z,3.40
2017-07-23T14:36:56.856Z,6.10
2017-07-23T14:39:23.000Z,5.00
2017-07-23T14:41:49.023Z,5.93
2017-07-23T14:44:15.055Z,4.63
2017-07-23T14:46:41.121Z,10.83
2017-07-23T14:49:07.940Z,2.83
2017-07-23T14:51:34.733Z,1.57
2017-07-23T14:54:00.777Z,1.50
2017-07-23T14:56:27.534Z,2.50
2017-07-23T14:58:53.557Z,2.10
2017-07-23T15:01:19.615Z,1.60
2017-07-23T15:03:46.406Z,3.23
2017-07-23T15:06:12.457Z,2.03
2017-07-23T15:08:38.479Z,2.80
2017-07-23T15:11:04.529Z,6.83
2017-07-23T15:13:30.560Z,2.10
2017-07-23T15:15:56.672Z,2.30
2017-07-23T15:18:22.689Z,2.90
2017-07-23T15:20:48.729Z,2.33
2017-07-23T15:23:14.744Z,4.87
2017-07-23T15:25:40.792Z,4.23
2017-07-23T15:28:06.827Z,2.30
2017-07-23T15:30:32.911Z,3.17
2017-07-23T15:32:58.991Z,2.00
2017-07-23T15:35:25.021Z,3.40
2017-07-23T15:37:51.060Z,2.20
2017-07-23T15:40:17.156Z,2.57
2017-07-23T15:42:43.188Z,5.90
2017-07-23T15:45:09.964Z,4.70
2017-07-23T15:47:36.002Z,5.40
2017-07-23T15:50:02.012Z,7.77
2017-07-23T15:52:28.041Z,5.63
2017-07-23T15:54:54.793Z,3.27
2017-07-23T15:57:20.824Z,5.07
2017-07-23T15:59:46.840Z,6.97
2017-07-23T16:02:12.857Z,3.47
2017-07-23T16:04:38.880Z,6.47
2017-07-23T16:07:04.920Z,2.97
2017-07-23T16:09:30.965Z,3.70
2017-07-23T16:11:57.007Z,3.20
2017-07-23T16:14:23.088Z,4.67
2017-07-23T16:16:49.116Z,4.10
2017-07-23T16:19:22.202Z,3.33
2017-07-23T16:21:48.217Z,3.97
2017-07-23T16:24:14.273Z,3.93
2017-07-23T16:26:40.282Z,7.50
2017-07-23T16:29:06.297Z,4.70
2017-07-23T16:31:32.320Z,3.50
2017-07-23T16:33:59.100Z,4.87
2017-07-23T16:36:25.124Z,6.83
2017-07-23T16:38:51.156Z,3.97
2017-07-23T16:41:17.189Z,5.67
2017-07-23T16:43:43.196Z,5.50
2017-07-23T16:46:09.252Z,3.87
2017-07-23T16:48:35.279Z,6.57
2017-07-23T16:51:01.311Z,7.00
2017-07-23T16:53:27.344Z,5.80
2017-07-23T16:55:53.368Z,4.27
2017-07-23T16:58:19.438Z,5.90
2017-07-23T17:00:45.496Z,4.87
2017-07-23T17:03:11.533Z,7.50
2017-07-23T17:05:37.572Z,5.53
2017-07-23T17:08:03.714Z,6.00
2017-07-23T17:10:30.465Z,6.47
2017-07-23T17:12:56.514Z,5.07
2017-07-23T17:15:22.560Z,7.27
2017-07-23T17:17:48.629Z,5.47
2017-07-23T17:20:14.655Z,5.77
2017-07-23T17:22:40.718Z,4.27
2017-07-23T17:25:06.749Z,6.07
2017-07-23T17:27:32.787Z,6.70
2017-07-23T17:29:58.847Z,4.30
2017-07-23T17:32:24.900Z,7.33
2017-07-23T17:34:50.925Z,5.87
2017-07-23T17:37:17.687Z,6.53
2017-07-23T17:39:43.728Z,8.10
2017-07-23T17:42:09.744Z,9.20
2017-07-23T17:44:35.769Z,6.70
2017-07-23T17:47:01.781Z,4.77
2017-07-23T17:49:27.797Z,4.90
2017-07-23T17:51:54.583Z,7.77
2017-07-23T17:54:20.606Z,5.33
2017-07-23T17:56:46.644Z,5.87
2017-07-23T17:59:13.416Z,5.80
2017-07-23T18:01:39.445Z,5.50
2017-07-23T18:04:05.474Z,5.13
2017-07-23T18:06:32.248Z,5.53
2017-07-23T18:08:58.260Z,5.60
2017-07-23T18:11:24.265Z,5.50
2017-07-23T18:13:50.297Z,5.83
2017-07-23T18:16:16.340Z,9.83
2017-07-23T18:18:43.116Z,5.80
2017-07-23T18:21:09.129Z,7.80
2017-07-23T18:23:35.172Z,7.27
2017-07-23T18:26:01.180Z,5.57
2017-07-23T18:28:27.968Z,6.00
2017-07-23T18:30:53.986Z,8.20
2017-07-23T18:33:20.016Z,10.43
2017-07-23T18:35:46.036Z,6.03
2017-07-23T18:38:12.788Z,6.53
2017-07-23T18:40:38.806Z,5.03
2017-07-23T18:43:04.816Z,6.57
2017-07-23T18:45:30.821Z,4.23
2017-07-23T18:47:56.841Z,4.80
2017-07-23T18:50:22.876Z,10.33
2017-07-23T18:52:48.880Z,7.70
2017-07-23T18:55:14.916Z,2.60
2017-07-23T18:57:41.665Z,4.80
2017-07-23T19:00:07.711Z,2.97
2017-07-23T19:02:33.724Z,4.50
2017-07-23T19:04:59.741Z,3.70
2017-07-23T19:07:25.782Z,5.30
2017-07-23T19:09:52.576Z,4.30
2017-07-23T19:12:18.625Z,3.63
2017-07-23T19:14:44.657Z,4.20
2017-07-23T19:17:10.681Z,8.07
2017-07-23T19:19:36.688Z,3.80
2017-07-23T19:22:02.744Z,6.83
2017-07-23T19:24:29.502Z,3.37
2017-07-23T19:26:55.540Z,7.23
2017-07-23T19:29:21.584Z,5.97
2017-07-23T19:31:47.590Z,6.50
2017-07-23T19:34:13.689Z,6.87
2017-07-23T19:36:39.714Z,3.57
2017-07-23T19:39:05.762Z,6.47
2017-07-23T19:41:31.781Z,4.70
2017-07-23T19:43:57.801Z,6.03
2017-07-23T19:46:23.820Z,3.30
2017-07-23T19:48:49.873Z,4.00
2017-07-23T19:51:15.917Z,2.83
2017-07-23T19:53:41.926Z,2.53
2017-07-23T19:56:07.951Z,3.43
2017-07-23T19:58:33.961Z,3.60
2017-07-23T20:01:00.020Z,2.93
2017-07-23T20:03:26.029Z,2.80
2017-07-23T20:05:52.048Z,3.53
2017-07-23T20:08:18.070Z,2.40
2017-07-23T20:10:44.093Z,4.53
2017-07-23T20:13:10.136Z,8.83
2017-07-23T20:15:36.146Z,6.57
2017-07-23T20:18:02.922Z,13.97
2017-07-23T20:20:28.928Z,11.40
2017-07-23T20:22:54.952Z,5.97
2017-07-23T20:25:20.988Z,8.67
2017-07-23T20:27:47.022Z,5.10
2017-07-23T20:30:13.773Z,8.17
2017-07-23T20:32:40.249Z,5.13
2017-07-23T20:35:06.277Z,3.47
2017-07-23T20:37:33.033Z,3.67
2017-07-23T20:39:59.076Z,7.23
2017-07-23T20:42:25.106Z,4.40
2017-07-23T20:44:51.904Z,10.80
2017-07-23T20:47:17.917Z,4.93
2017-07-23T20:49:43.952Z,4.70
2017-07-23T20:52:10.729Z,6.70
2017-07-23T20:54:36.764Z,3.70
2017-07-23T20:57:02.816Z,2.70
2017-07-23T20:59:28.874Z,2.50
2017-07-23T21:01:55.014Z,6.00
2017-07-23T21:04:21.774Z,6.00
2017-07-23T21:06:47.828Z,4.40
2017-07-23T21:09:14.618Z,6.73
2017-07-23T21:11:40.642Z,4.20
2017-07-23T21:14:06.680Z,2.10
2017-07-23T21:16:32.700Z,3.70
2017-07-23T21:18:58.717Z,2.70
2017-07-23T21:21:25.483Z,2.10
2017-07-23T21:23:51.508Z,2.40
2017-07-23T21:26:17.542Z,2.90
2017-07-23T21:28:44.288Z,5.60
2017-07-23T21:31:10.318Z,2.83
2017-07-23T21:33:36.346Z,5.30
2017-07-23T21:36:02.370Z,2.90
2017-07-23T21:38:28.412Z,3.87
2017-07-23T21:40:55.170Z,4.43
2017-07-23T21:43:21.200Z,3.20
2017-07-23T21:45:54.153Z,4.33
2017-07-23T21:48:20.205Z,2.93
2017-07-23T21:50:46.233Z,3.80
2017-07-23T21:53:13.004Z,5.93
2017-07-23T21:55:39.028Z,2.77
2017-07-23T21:58:05.081Z,5.07
2017-07-23T22:00:31.853Z,4.10
2017-07-23T22:02:57.907Z,7.10
2017-07-23T22:05:24.276Z,3.47
2017-07-23T22:07:50.292Z,5.70
2017-07-23T22:10:16.310Z,5.97
2017-07-23T22:12:42.324Z,3.93
2017-07-23T22:15:08.376Z,8.33
2017-07-23T22:17:34.401Z,9.93
2017-07-23T22:20:00.421Z,3.90
2017-07-23T22:22:26.448Z,5.47
2017-07-23T22:24:52.484Z,8.70
2017-07-23T22:27:18.504Z,5.23
2017-07-23T22:29:45.268Z,7.10
2017-07-23T22:32:11.288Z,6.10
2017-07-23T22:34:37.289Z,4.10
2017-07-23T22:37:03.341Z,5.40
2017-07-23T22:39:29.353Z,6.50
2017-07-23T22:41:55.396Z,3.77
2017-07-23T22:44:21.413Z,8.87
2017-07-23T22:46:47.442Z,5.63
2017-07-23T22:49:13.461Z,9.87
2017-07-23T22:51:39.500Z,4.93
2017-07-23T22:54:05.508Z,7.57
2017-07-23T22:56:31.522Z,4.97
2017-07-23T22:58:58.358Z,5.13
2017-07-23T23:01:25.121Z,7.33
2017-07-23T23:03:51.167Z,6.43
2017-07-23T23:06:17.186Z,9.67
2017-07-23T23:08:43.200Z,7.63
2017-07-23T23:11:09.957Z,16.03
2017-07-23T23:13:36.004Z,8.03
2017-07-23T23:16:02.024Z,5.77
2017-07-23T23:18:28.072Z,6.33
2017-07-23T23:20:54.089Z,10.00
2017-07-23T23:23:20.133Z,5.67
2017-07-23T23:25:46.161Z,4.90
2017-07-23T23:28:12.188Z,7.77
2017-07-23T23:30:38.961Z,14.00
2017-07-23T23:33:04.976Z,12.77
2017-07-23T23:35:31.000Z,6.60
2017-07-23T23:37:57.008Z,10.13
2017-07-23T23:40:23.033Z,7.77
2017-07-23T23:42:49.812Z,11.50
2017-07-23T23:45:15.877Z,8.93
2017-07-23T23:47:42.730Z,10.10
2017-07-23T23:50:08.744Z,7.07
2017-07-23T23:52:34.780Z,11.77
2017-07-23T23:55:00.798Z,10.60
2017-07-23T23:57:26.821Z,11.20
2017-07-23T23:59:52.838Z,6.33
